Time;durP1;ratioP1;P1;durP2;ratioP2;P2;SDS_P1;SDS_P2;PMS_P1;PMS_P2;Temp;Humidity;BMP_temperature;BMP_pressure;BME280_temperature;BME280_humidity;BME280_pressure;Samples;Min_cycle;Max_cycle;Signal;HPM_P1;HPM_P2
2022/05/30 00:01:23;;;;;;;5.53;2.00;;;;;;;;;;4995576;28;20202;-52
2022/05/30 00:03:49;;;;;;;5.00;2.00;;;;;;;;;;4996138;28;20309;-52
2022/05/30 00:06:16;;;;;;;4.90;2.47;;;;;;;;;;4995713;28;20217;-52
2022/05/30 00:08:43;;;;;;;5.83;1.97;;;;;;;;;;4995390;28;20244;-51
2022/05/30 00:11:09;;;;;;;6.23;2.30;;;;;;;;;;4995252;28;20242;-52
2022/05/30 00:13:36;;;;;;;8.70;2.43;;;;;;;;;;4995487;28;20244;-52
2022/05/30 00:16:03;;;;;;;6.40;2.13;;;;;;;;;;4995583;28;20261;-53
2022/05/30 00:18:30;;;;;;;7.73;1.90;;;;;;;;;;4995408;28;20222;-52
2022/05/30 00:20:56;;;;;;;13.10;2.77;;;;;;;;;;4995399;28;20623;-51
2022/05/30 00:23:22;;;;;;;11.10;2.63;;;;;;;;;;4995174;28;20707;-51
2022/05/30 00:25:48;;;;;;;6.60;2.23;;;;;;;;;;4995200;28;20329;-51
2022/05/30 00:28:16;;;;;;;4.93;1.80;;;;;;;;;;4994752;28;20234;-51
2022/05/30 00:30:43;;;;;;;8.97;2.30;;;;;;;;;;4995373;28;20437;-49
2022/05/30 00:33:09;;;;;;;8.37;2.43;;;;;;;;;;4995017;28;20194;-50
2022/05/30 00:35:36;;;;;;;6.10;2.23;;;;;;;;;;4995097;28;20202;-50
2022/05/30 00:38:02;;;;;;;5.40;2.10;;;;;;;;;;4995128;28;20202;-50
2022/05/30 00:40:28;;;;;;;6.13;2.23;;;;;;;;;;4995002;28;20198;-51
2022/05/30 00:42:54;;;;;;;5.37;2.17;;;;;;;;;;4994954;28;20216;-52
2022/05/30 00:45:20;;;;;;;8.20;2.20;;;;;;;;;;4994796;28;20290;-51
2022/05/30 00:47:47;;;;;;;9.70;2.57;;;;;;;;;;4994935;28;20218;-51
2022/05/30 00:50:13;;;;;;;5.97;2.10;;;;;;;;;;4994804;28;20198;-50
2022/05/30 00:52:42;;;;;;;8.00;2.60;;;;;;;;;;4994779;28;20194;-50
2022/05/30 00:55:09;;;;;;;5.40;2.00;;;;;;;;;;4993673;28;20206;-50
2022/05/30 00:57:36;;;;;;;7.63;2.13;;;;;;;;;;4994446;28;20206;-50
2022/05/30 01:00:04;;;;;;;10.07;2.63;;;;;;;;;;4994774;28;20199;-50
2022/05/30 01:02:31;;;;;;;4.93;2.33;;;;;;;;;;4994550;28;20198;-51
2022/05/30 01:07:44;;;;;;;10.13;2.10;;;;;;;;;;4994562;28;20702;-52
2022/05/30 01:10:12;;;;;;;9.33;2.20;;;;;;;;;;4994396;28;20202;-51
2022/05/30 01:12:40;;;;;;;7.40;2.60;;;;;;;;;;4994265;28;20202;-51
2022/05/30 01:15:08;;;;;;;6.23;2.07;;;;;;;;;;4994297;28;20198;-51
2022/05/30 01:17:35;;;;;;;4.43;2.07;;;;;;;;;;4994479;28;20211;-50
2022/05/30 01:20:05;;;;;;;7.93;2.30;;;;;;;;;;4994393;28;20198;-51
2022/05/30 01:22:40;;;;;;;6.90;2.20;;;;;;;;;;4994274;28;20563;-51
2022/05/30 01:25:14;;;;;;;7.33;2.10;;;;;;;;;;4993975;28;20221;-51
2022/05/30 01:27:44;;;;;;;5.67;2.00;;;;;;;;;;4994041;28;20245;-51
2022/05/30 01:30:13;;;;;;;10.27;2.50;;;;;;;;;;4994093;28;20198;-51
2022/05/30 01:32:40;;;;;;;5.63;1.80;;;;;;;;;;4994089;28;20210;-51
2022/05/30 01:35:06;;;;;;;7.37;2.20;;;;;;;;;;4993907;28;20198;-52
2022/05/30 01:37:32;;;;;;;10.70;2.70;;;;;;;;;;4993981;28;20605;-51
2022/05/30 01:39:58;;;;;;;5.53;2.10;;;;;;;;;;4993835;28;20562;-51
2022/05/30 01:42:25;;;;;;;5.70;2.17;;;;;;;;;;4993573;28;20200;-51
2022/05/30 01:44:51;;;;;;;6.50;2.43;;;;;;;;;;4993829;28;20206;-52
2022/05/30 01:47:19;;;;;;;5.37;2.10;;;;;;;;;;4993744;28;20203;-52
2022/05/30 01:49:45;;;;;;;11.73;2.60;;;;;;;;;;4993754;28;20232;-51
2022/05/30 01:52:11;;;;;;;8.40;2.50;;;;;;;;;;4993610;28;20281;-51
2022/05/30 01:54:37;;;;;;;9.40;2.67;;;;;;;;;;4993757;28;20220;-52
2022/05/30 01:57:03;;;;;;;7.90;2.50;;;;;;;;;;4993611;28;20637;-50
2022/05/30 01:59:29;;;;;;;9.30;2.60;;;;;;;;;;4993457;28;20202;-51
2022/05/30 02:01:55;;;;;;;5.37;2.47;;;;;;;;;;4993254;28;20213;-51
2022/05/30 02:04:22;;;;;;;12.50;2.57;;;;;;;;;;4993364;28;20198;-51
2022/05/30 02:06:48;;;;;;;8.13;2.30;;;;;;;;;;4992469;28;20665;-51
2022/05/30 02:09:14;;;;;;;8.70;2.60;;;;;;;;;;4993299;28;20229;-50
2022/05/30 02:11:40;;;;;;;9.20;2.60;;;;;;;;;;4993289;28;20198;-52
2022/05/30 02:14:06;;;;;;;11.47;3.40;;;;;;;;;;4993270;28;20241;-51
2022/05/30 02:19:17;;;;;;;10.47;3.33;;;;;;;;;;4993212;28;20217;-51
2022/05/30 02:21:44;;;;;;;8.03;2.63;;;;;;;;;;4993198;28;20249;-50
2022/05/30 02:24:10;;;;;;;7.53;2.93;;;;;;;;;;4993011;28;20211;-51
2022/05/30 02:26:37;;;;;;;5.90;2.37;;;;;;;;;;4992773;28;20218;-52
2022/05/30 02:29:04;;;;;;;7.33;2.57;;;;;;;;;;4992809;28;20246;-51
2022/05/30 02:31:30;;;;;;;8.70;2.70;;;;;;;;;;4992956;28;20198;-51
2022/05/30 02:36:40;;;;;;;7.73;2.83;;;;;;;;;;4992926;28;20629;-50
2022/05/30 02:39:08;;;;;;;10.57;2.63;;;;;;;;;;4992497;28;20607;-51
2022/05/30 02:41:34;;;;;;;8.37;3.43;;;;;;;;;;4992410;28;20210;-51
2022/05/30 02:44:00;;;;;;;8.83;3.03;;;;;;;;;;4992668;28;20564;-51
2022/05/30 02:46:26;;;;;;;10.77;3.10;;;;;;;;;;4992629;28;20194;-52
2022/05/30 02:48:52;;;;;;;8.93;3.13;;;;;;;;;;4992545;28;20238;-51
2022/05/30 02:51:18;;;;;;;8.17;3.20;;;;;;;;;;4992532;28;20285;-52
2022/05/30 02:53:44;;;;;;;7.67;3.30;;;;;;;;;;4992650;28;20256;-51
2022/05/30 02:56:13;;;;;;;8.60;3.37;;;;;;;;;;4992368;28;20202;-52
2022/05/30 02:58:39;;;;;;;9.67;3.83;;;;;;;;;;4992371;28;20507;-51
2022/05/30 03:01:05;;;;;;;7.07;3.17;;;;;;;;;;4992534;28;20598;-52
2022/05/30 03:03:31;;;;;;;8.13;3.00;;;;;;;;;;4992484;28;20655;-51
2022/05/30 03:05:57;;;;;;;8.57;3.67;;;;;;;;;;4992421;28;20202;-51
2022/05/30 03:08:23;;;;;;;11.27;4.30;;;;;;;;;;4992182;28;20236;-51
2022/05/30 03:10:49;;;;;;;9.70;4.00;;;;;;;;;;4992332;28;20201;-51
2022/05/30 03:13:16;;;;;;;14.47;4.07;;;;;;;;;;4992481;28;20193;-51
2022/05/30 03:15:43;;;;;;;10.10;4.80;;;;;;;;;;4992283;28;20199;-51
2022/05/30 03:18:09;;;;;;;8.77;3.53;;;;;;;;;;4992012;28;20198;-50
2022/05/30 03:20:35;;;;;;;9.57;3.50;;;;;;;;;;4992116;28;20645;-52
2022/05/30 03:23:01;;;;;;;11.63;3.87;;;;;;;;;;4992249;28;20280;-52
2022/05/30 03:25:27;;;;;;;9.17;3.70;;;;;;;;;;4992009;28;20225;-52
2022/05/30 03:27:53;;;;;;;8.07;3.77;;;;;;;;;;4991725;28;20316;-52
2022/05/30 03:30:21;;;;;;;9.57;3.33;;;;;;;;;;4991867;28;20209;-52
2022/05/30 03:32:47;;;;;;;6.40;3.03;;;;;;;;;;4992219;28;20233;-52
2022/05/30 03:35:13;;;;;;;9.23;3.90;;;;;;;;;;4992286;28;20202;-51
2022/05/30 03:37:40;;;;;;;7.70;3.40;;;;;;;;;;4992099;28;20293;-51
2022/05/30 03:40:07;;;;;;;9.03;3.50;;;;;;;;;;4991933;28;20198;-52
2022/05/30 03:42:33;;;;;;;9.17;3.97;;;;;;;;;;4991847;28;20205;-50
2022/05/30 03:44:59;;;;;;;11.93;3.97;;;;;;;;;;4992085;28;20280;-52
2022/05/30 03:47:27;;;;;;;10.17;4.03;;;;;;;;;;4991888;28;20659;-51
2022/05/30 03:49:58;;;;;;;7.13;3.30;;;;;;;;;;4991845;28;20221;-52
2022/05/30 03:52:24;;;;;;;13.23;4.17;;;;;;;;;;4992186;28;20691;-51
2022/05/30 03:54:50;;;;;;;11.20;3.97;;;;;;;;;;4992271;28;20199;-51
2022/05/30 03:57:16;;;;;;;7.77;3.23;;;;;;;;;;4992003;28;20661;-52
2022/05/30 03:59:42;;;;;;;8.50;3.63;;;;;;;;;;4991847;28;20211;-52
2022/05/30 04:02:08;;;;;;;9.27;4.27;;;;;;;;;;4991943;28;20190;-52
2022/05/30 04:04:35;;;;;;;8.70;3.97;;;;;;;;;;4991909;28;20203;-51
2022/05/30 04:07:01;;;;;;;14.60;4.03;;;;;;;;;;4992175;28;20210;-50
2022/05/30 04:09:27;;;;;;;9.17;3.93;;;;;;;;;;4991612;28;20226;-50
2022/05/30 04:11:53;;;;;;;9.97;3.93;;;;;;;;;;4991818;28;20213;-50
2022/05/30 04:14:19;;;;;;;7.17;3.50;;;;;;;;;;4991771;28;20573;-50
2022/05/30 04:16:45;;;;;;;6.93;3.90;;;;;;;;;;4991736;28;20245;-51
2022/05/30 04:19:11;;;;;;;7.97;3.77;;;;;;;;;;4991707;28;20228;-51
2022/05/30 04:21:38;;;;;;;9.53;4.00;;;;;;;;;;4991650;28;20289;-50
2022/05/30 04:24:05;;;;;;;10.63;4.13;;;;;;;;;;4991593;28;20567;-51
2022/05/30 04:26:31;;;;;;;9.23;3.70;;;;;;;;;;4991486;28;20249;-51
2022/05/30 04:28:57;;;;;;;8.37;3.37;;;;;;;;;;4991462;28;20234;-51
2022/05/30 04:31:23;;;;;;;9.20;3.60;;;;;;;;;;4994391;28;20206;-51
2022/05/30 04:33:49;;;;;;;10.13;3.90;;;;;;;;;;4995205;28;20245;-50
2022/05/30 04:36:15;;;;;;;5.50;3.43;;;;;;;;;;4995069;28;20688;-51
2022/05/30 04:38:42;;;;;;;9.40;4.00;;;;;;;;;;4994897;28;20202;-50
2022/05/30 04:41:09;;;;;;;9.27;4.00;;;;;;;;;;4995024;28;20202;-51
2022/05/30 04:43:35;;;;;;;10.30;3.40;;;;;;;;;;4994898;28;20198;-51
2022/05/30 04:46:05;;;;;;;9.30;3.93;;;;;;;;;;4995160;28;20688;-51
2022/05/30 04:48:31;;;;;;;11.43;3.80;;;;;;;;;;4994618;28;20284;-51
2022/05/30 04:50:57;;;;;;;9.33;3.83;;;;;;;;;;4994876;28;20625;-51
2022/05/30 04:53:23;;;;;;;7.20;3.83;;;;;;;;;;4994735;28;20297;-52
2022/05/30 04:55:51;;;;;;;7.13;3.70;;;;;;;;;;4994756;28;20198;-51
2022/05/30 04:58:17;;;;;;;8.13;3.73;;;;;;;;;;4994788;28;20210;-51
2022/05/30 05:00:43;;;;;;;7.57;3.33;;;;;;;;;;4994604;28;20245;-51
2022/05/30 05:03:08;;;;;;;7.33;3.30;;;;;;;;;;4994651;28;20571;-51
2022/05/30 05:05:34;;;;;;;9.80;3.43;;;;;;;;;;4994476;28;20264;-51
2022/05/30 05:08:05;;;;;;;11.07;3.50;;;;;;;;;;4994510;28;20217;-52
2022/05/30 05:10:42;;;;;;;10.43;3.87;;;;;;;;;;4994417;28;20206;-51
2022/05/30 05:13:10;;;;;;;6.57;2.90;;;;;;;;;;4994326;28;20664;-52
2022/05/30 05:15:35;;;;;;;7.13;3.20;;;;;;;;;;4994171;28;20257;-51
2022/05/30 05:18:02;;;;;;;8.17;3.17;;;;;;;;;;4994109;28;20549;-51
2022/05/30 05:20:28;;;;;;;8.87;4.27;;;;;;;;;;4994015;28;20209;-51
2022/05/30 05:22:54;;;;;;;5.40;3.03;;;;;;;;;;4994268;28;20510;-52
2022/05/30 05:25:20;;;;;;;7.60;3.27;;;;;;;;;;4993654;28;20591;-50
2022/05/30 05:27:48;;;;;;;7.07;3.40;;;;;;;;;;4994039;28;20778;-51
2022/05/30 05:30:15;;;;;;;5.60;2.70;;;;;;;;;;4994102;28;20234;-51
2022/05/30 05:32:41;;;;;;;6.83;2.90;;;;;;;;;;4993795;28;20221;-52
2022/05/30 05:35:08;;;;;;;6.63;2.83;;;;;;;;;;4993815;28;20776;-51
2022/05/30 05:37:34;;;;;;;8.33;3.33;;;;;;;;;;4993725;28;20669;-51
2022/05/30 05:40:00;;;;;;;7.10;2.60;;;;;;;;;;4993964;28;20195;-51
2022/05/30 05:42:26;;;;;;;3.50;2.30;;;;;;;;;;4993475;28;20711;-50
2022/05/30 05:44:52;;;;;;;8.30;3.00;;;;;;;;;;4993897;28;20206;-51
2022/05/30 05:47:19;;;;;;;5.83;2.50;;;;;;;;;;4993782;28;20206;-51
2022/05/30 05:49:45;;;;;;;8.93;2.97;;;;;;;;;;4993420;28;20719;-50
2022/05/30 05:52:11;;;;;;;5.93;2.70;;;;;;;;;;4993602;28;20198;-50
2022/05/30 05:54:37;;;;;;;5.37;3.00;;;;;;;;;;4993328;28;20198;-51
2022/05/30 05:57:04;;;;;;;5.80;2.30;;;;;;;;;;4993687;28;20208;-51
2022/05/30 05:59:30;;;;;;;6.23;2.07;;;;;;;;;;4993417;28;20187;-50
2022/05/30 06:01:56;;;;;;;5.27;2.47;;;;;;;;;;4993412;28;20198;-50
2022/05/30 06:04:23;;;;;;;7.07;2.20;;;;;;;;;;4993238;28;20203;-50
2022/05/30 06:06:49;;;;;;;4.80;2.37;;;;;;;;;;4993539;28;20202;-50
2022/05/30 06:09:15;;;;;;;6.83;2.27;;;;;;;;;;4993270;28;20288;-50
2022/05/30 06:11:41;;;;;;;5.83;2.37;;;;;;;;;;4993206;28;20252;-49
2022/05/30 06:14:07;;;;;;;3.33;2.00;;;;;;;;;;4993010;28;20257;-49
2022/05/30 06:16:37;;;;;;;7.03;2.00;;;;;;;;;;4993158;28;20202;-50
2022/05/30 06:19:03;;;;;;;7.03;2.43;;;;;;;;;;4993381;28;20213;-51
2022/05/30 06:21:32;;;;;;;6.37;2.67;;;;;;;;;;4993147;28;20221;-50
2022/05/30 06:23:58;;;;;;;5.10;1.83;;;;;;;;;;4992978;28;20613;-52
2022/05/30 06:26:25;;;;;;;7.60;2.10;;;;;;;;;;4992698;28;20309;-50
2022/05/30 06:28:54;;;;;;;5.63;2.00;;;;;;;;;;4991451;28;20790;-51
2022/05/30 06:31:22;;;;;;;6.07;2.00;;;;;;;;;;4992956;28;20202;-50
2022/05/30 06:33:48;;;;;;;5.17;1.97;;;;;;;;;;4992912;28;20209;-50
2022/05/30 06:36:15;;;;;;;4.17;1.37;;;;;;;;;;4992922;28;20202;-51
2022/05/30 06:38:43;;;;;;;5.73;1.90;;;;;;;;;;4992727;28;20273;-52
2022/05/30 06:41:13;;;;;;;3.80;1.93;;;;;;;;;;4992368;28;20637;-51
2022/05/30 06:43:39;;;;;;;6.27;2.37;;;;;;;;;;4992689;28;20253;-51
2022/05/30 06:46:05;;;;;;;4.63;1.67;;;;;;;;;;4992705;28;20209;-51
2022/05/30 06:48:31;;;;;;;4.87;1.70;;;;;;;;;;4992603;28;20226;-51
2022/05/30 06:50:57;;;;;;;5.70;2.03;;;;;;;;;;4992391;28;20205;-51
2022/05/30 06:53:23;;;;;;;5.80;1.60;;;;;;;;;;4991815;28;20198;-50
2022/05/30 06:55:51;;;;;;;6.33;1.80;;;;;;;;;;4992306;28;20221;-51
2022/05/30 06:58:18;;;;;;;5.60;2.33;;;;;;;;;;4992543;28;20210;-49
2022/05/30 07:00:44;;;;;;;5.93;1.70;;;;;;;;;;4992430;28;20256;-51
2022/05/30 07:03:11;;;;;;;5.20;1.60;;;;;;;;;;4992344;28;20289;-52
2022/05/30 07:05:38;;;;;;;7.03;1.90;;;;;;;;;;4992091;28;20285;-51
2022/05/30 07:08:04;;;;;;;5.47;1.90;;;;;;;;;;4992395;28;20257;-51
2022/05/30 07:10:30;;;;;;;2.40;1.53;;;;;;;;;;4991922;28;20226;-50
2022/05/30 07:12:58;;;;;;;5.13;1.40;;;;;;;;;;4992067;28;20218;-50
2022/05/30 07:15:24;;;;;;;6.67;1.77;;;;;;;;;;4992073;28;20222;-49
2022/05/30 07:17:50;;;;;;;4.13;1.97;;;;;;;;;;4992094;28;20198;-51
2022/05/30 07:20:16;;;;;;;4.50;1.63;;;;;;;;;;4992309;28;20198;-52
2022/05/30 07:22:42;;;;;;;4.83;1.60;;;;;;;;;;4991892;28;20206;-51
2022/05/30 07:25:09;;;;;;;4.90;1.90;;;;;;;;;;4992100;28;20232;-51
2022/05/30 07:27:35;;;;;;;4.20;1.83;;;;;;;;;;4991799;28;20230;-51
2022/05/30 07:30:02;;;;;;;2.57;1.60;;;;;;;;;;4992297;28;20226;-50
2022/05/30 07:32:29;;;;;;;8.57;2.00;;;;;;;;;;4992104;28;20213;-49
2022/05/30 07:34:56;;;;;;;5.27;1.77;;;;;;;;;;4992019;28;20237;-50
2022/05/30 07:37:22;;;;;;;5.43;1.60;;;;;;;;;;4992085;28;20197;-50
2022/05/30 07:39:48;;;;;;;4.20;1.77;;;;;;;;;;4992037;28;20233;-47
2022/05/30 07:42:14;;;;;;;3.33;1.50;;;;;;;;;;4992020;28;20272;-48
2022/05/30 07:44:40;;;;;;;2.97;1.27;;;;;;;;;;4992088;28;20206;-49
2022/05/30 07:47:08;;;;;;;6.13;1.70;;;;;;;;;;4991904;28;20201;-49
2022/05/30 07:49:35;;;;;;;2.97;1.40;;;;;;;;;;4991918;28;20232;-49
2022/05/30 07:52:01;;;;;;;4.03;1.57;;;;;;;;;;4992200;28;20202;-48
2022/05/30 07:54:27;;;;;;;3.03;1.40;;;;;;;;;;4991630;28;20617;-49
2022/05/30 07:56:53;;;;;;;3.70;1.40;;;;;;;;;;4984771;28;20522;-50
2022/05/30 07:59:20;;;;;;;4.50;2.00;;;;;;;;;;4971953;28;20682;-49
2022/05/30 08:01:46;;;;;;;2.97;1.57;;;;;;;;;;4970743;28;20238;-49
2022/05/30 08:04:15;;;;;;;4.13;1.40;;;;;;;;;;4972338;28;20238;-49
2022/05/30 08:06:41;;;;;;;6.73;1.60;;;;;;;;;;4975867;28;20187;-50
2022/05/30 08:09:07;;;;;;;3.50;1.63;;;;;;;;;;4976014;28;20246;-49
2022/05/30 08:11:33;;;;;;;3.43;1.40;;;;;;;;;;4976137;28;20195;-49
2022/05/30 08:13:59;;;;;;;3.90;1.63;;;;;;;;;;4976205;28;20199;-49
2022/05/30 08:16:26;;;;;;;6.47;1.90;;;;;;;;;;4976047;28;20575;-50
2022/05/30 08:18:52;;;;;;;3.97;1.50;;;;;;;;;;4975836;28;20199;-49
2022/05/30 08:21:20;;;;;;;6.67;1.80;;;;;;;;;;4975663;28;20262;-49
2022/05/30 08:23:46;;;;;;;3.67;1.37;;;;;;;;;;4975626;28;20198;-50
2022/05/30 08:26:15;;;;;;;4.80;1.67;;;;;;;;;;4972347;28;20214;-49
2022/05/30 08:28:41;;;;;;;7.53;1.67;;;;;;;;;;4973605;28;20231;-49
2022/05/30 08:31:09;;;;;;;4.03;1.50;;;;;;;;;;4973875;28;20617;-49
2022/05/30 08:33:35;;;;;;;6.37;1.47;;;;;;;;;;4973896;28;20234;-50
2022/05/30 08:36:02;;;;;;;2.27;1.40;;;;;;;;;;4973857;28;20286;-49
2022/05/30 08:38:37;;;;;;;2.53;1.60;;;;;;;;;;4973783;28;20226;-49
2022/05/30 08:43:49;;;;;;;5.27;1.57;;;;;;;;;;4975545;28;20205;-49
2022/05/30 08:46:24;;;;;;;2.80;1.37;;;;;;;;;;4975375;28;20282;-48
2022/05/30 08:48:56;;;;;;;2.93;1.37;;;;;;;;;;4975119;28;20718;-48
2022/05/30 08:51:34;;;;;;;2.20;1.30;;;;;;;;;;4975512;28;20210;-49
2022/05/30 08:54:08;;;;;;;2.17;1.40;;;;;;;;;;4975227;28;20206;-49
2022/05/30 08:56:37;;;;;;;3.20;1.80;;;;;;;;;;4975219;28;20306;-51
2022/05/30 08:59:09;;;;;;;3.00;1.13;;;;;;;;;;4975194;28;20289;-49
2022/05/30 09:01:38;;;;;;;4.47;1.57;;;;;;;;;;4975006;28;20241;-48
2022/05/30 09:04:07;;;;;;;2.23;1.40;;;;;;;;;;4975004;28;20283;-48
2022/05/30 09:06:35;;;;;;;5.00;1.50;;;;;;;;;;4975378;28;20219;-49
2022/05/30 09:09:07;;;;;;;2.63;1.50;;;;;;;;;;4974793;28;20258;-49
2022/05/30 09:11:38;;;;;;;4.40;1.60;;;;;;;;;;4972300;28;20195;-49
2022/05/30 09:14:06;;;;;;;6.03;1.80;;;;;;;;;;4962086;28;20258;-49
2022/05/30 09:16:35;;;;;;;2.50;1.20;;;;;;;;;;4964661;28;20231;-49
2022/05/30 09:19:01;;;;;;;1.10;1.00;;;;;;;;;;4972036;28;20203;-49
2022/05/30 09:21:29;;;;;;;2.73;1.63;;;;;;;;;;4974787;28;20289;-50
2022/05/30 09:23:55;;;;;;;1.63;1.10;;;;;;;;;;4974734;28;20237;-49
2022/05/30 09:26:23;;;;;;;3.70;1.37;;;;;;;;;;4974873;28;20219;-49
2022/05/30 09:28:51;;;;;;;3.17;1.40;;;;;;;;;;4974818;28;20235;-49
2022/05/30 09:31:23;;;;;;;3.73;1.43;;;;;;;;;;4975030;28;20205;-50
2022/05/30 09:33:50;;;;;;;2.57;1.30;;;;;;;;;;4974891;28;20202;-49
2022/05/30 09:36:18;;;;;;;3.33;1.40;;;;;;;;;;4974834;28;20194;-51
2022/05/30 09:38:47;;;;;;;1.93;1.30;;;;;;;;;;4974664;28;20291;-49
2022/05/30 09:41:16;;;;;;;5.10;1.90;;;;;;;;;;4974839;28;20203;-49
2022/05/30 09:43:44;;;;;;;4.33;1.83;;;;;;;;;;4974567;28;20324;-50
2022/05/30 09:46:20;;;;;;;5.37;2.30;;;;;;;;;;4974696;28;20213;-49
2022/05/30 09:49:03;;;;;;;2.30;1.40;;;;;;;;;;4974303;28;20241;-48
2022/05/30 09:51:33;;;;;;;2.37;1.30;;;;;;;;;;4974537;28;20202;-49
2022/05/30 09:53:59;;;;;;;5.10;1.50;;;;;;;;;;4974339;28;20222;-49
2022/05/30 09:56:27;;;;;;;2.27;1.20;;;;;;;;;;4974288;28;20873;-49
2022/05/30 09:59:00;;;;;;;1.70;1.40;;;;;;;;;;4974181;28;20226;-50
2022/05/30 10:01:28;;;;;;;2.13;1.23;;;;;;;;;;4974303;28;20206;-49
2022/05/30 10:03:59;;;;;;;2.57;1.63;;;;;;;;;;4974088;28;20215;-50
2022/05/30 10:06:27;;;;;;;4.97;1.70;;;;;;;;;;4974233;28;20199;-49
2022/05/30 10:09:08;;;;;;;4.40;1.60;;;;;;;;;;4974072;28;20247;-49
2022/05/30 10:11:35;;;;;;;3.50;1.23;;;;;;;;;;4974151;28;20338;-49
2022/05/30 10:14:16;;;;;;;2.23;1.37;;;;;;;;;;4974122;28;20205;-49
2022/05/30 10:16:45;;;;;;;3.93;1.80;;;;;;;;;;4973787;28;20203;-49
2022/05/30 10:19:12;;;;;;;4.70;1.60;;;;;;;;;;4973731;28;20230;-50
2022/05/30 10:28:14;;;;;;;3.87;1.30;;;;;;;;;;4973823;28;20285;-48
2022/05/30 10:30:12;;;;;;;2.50;1.60;;;;;;;;;;4973168;28;20292;-49
2022/05/30 10:32:46;;;;;;;4.97;1.30;;;;;;;;;;4973321;28;20205;-49
2022/05/30 10:35:17;;;;;;;2.27;1.00;;;;;;;;;;4973761;28;20277;-49
2022/05/30 10:37:54;;;;;;;1.07;0.90;;;;;;;;;;4973633;28;20290;-49
2022/05/30 10:40:25;;;;;;;3.90;1.47;;;;;;;;;;4973550;28;20537;-50
2022/05/30 10:42:54;;;;;;;2.43;1.30;;;;;;;;;;4973376;28;20289;-50
2022/05/30 10:45:24;;;;;;;4.03;1.20;;;;;;;;;;4973468;28;20235;-49
2022/05/30 10:47:53;;;;;;;2.30;1.40;;;;;;;;;;4973211;28;20654;-49
2022/05/30 10:50:21;;;;;;;1.63;0.93;;;;;;;;;;4972898;28;20600;-49
2022/05/30 10:52:49;;;;;;;2.60;1.20;;;;;;;;;;4973336;28;20234;-49
2022/05/30 10:55:17;;;;;;;1.30;1.20;;;;;;;;;;4973226;28;20202;-49
2022/05/30 10:57:45;;;;;;;1.43;1.10;;;;;;;;;;4973126;28;20203;-49
2022/05/30 11:00:13;;;;;;;2.63;1.10;;;;;;;;;;4973218;28;20253;-51
2022/05/30 11:02:45;;;;;;;2.83;1.50;;;;;;;;;;4973188;28;20199;-50
2022/05/30 11:05:15;;;;;;;4.43;1.37;;;;;;;;;;4973079;28;20199;-50
2022/05/30 11:07:45;;;;;;;2.67;1.30;;;;;;;;;;4973080;28;20286;-49
2022/05/30 11:10:32;;;;;;;4.73;1.47;;;;;;;;;;4973036;28;20622;-50
2022/05/30 11:13:02;;;;;;;2.93;1.80;;;;;;;;;;4973229;28;20661;-49
2022/05/30 11:15:30;;;;;;;3.17;1.40;;;;;;;;;;4972796;28;20274;-50
2022/05/30 11:18:01;;;;;;;3.63;2.13;;;;;;;;;;4972758;28;20717;-50
2022/05/30 11:20:31;;;;;;;2.67;1.30;;;;;;;;;;4972912;28;20210;-49
2022/05/30 11:22:57;;;;;;;2.50;1.50;;;;;;;;;;4972444;28;20199;-50
2022/05/30 11:25:28;;;;;;;1.83;1.40;;;;;;;;;;4968394;28;20586;-51
2022/05/30 11:28:00;;;;;;;3.73;1.17;;;;;;;;;;4972408;28;20242;-51
2022/05/30 11:30:31;;;;;;;2.27;1.60;;;;;;;;;;4972724;28;20647;-51
2022/05/30 11:33:15;;;;;;;3.37;1.40;;;;;;;;;;4972634;28;20194;-55
2022/05/30 11:35:46;;;;;;;3.13;1.77;;;;;;;;;;4972982;28;20203;-51
2022/05/30 11:38:20;;;;;;;4.13;1.50;;;;;;;;;;4971620;28;20293;-50
2022/05/30 11:40:49;;;;;;;2.30;1.60;;;;;;;;;;4976460;28;20301;-50
2022/05/30 11:43:27;;;;;;;2.80;1.73;;;;;;;;;;4977003;28;20230;-50
2022/05/30 11:45:55;;;;;;;4.63;1.50;;;;;;;;;;4976514;28;20190;-51
2022/05/30 11:48:26;;;;;;;2.57;1.30;;;;;;;;;;4974766;28;20619;-50
2022/05/30 11:50:57;;;;;;;3.40;1.23;;;;;;;;;;4976511;28;20273;-48
2022/05/30 11:53:52;;;;;;;1.23;1.10;;;;;;;;;;4976379;28;20289;-49
2022/05/30 11:56:21;;;;;;;3.90;1.47;;;;;;;;;;4976744;28;20250;-49
2022/05/30 11:58:53;;;;;;;3.20;1.30;;;;;;;;;;4976881;28;20203;-49
2022/05/30 12:01:21;;;;;;;5.03;1.60;;;;;;;;;;4976713;28;20222;-49
2022/05/30 12:04:13;;;;;;;2.27;1.23;;;;;;;;;;4976806;28;20289;-48
2022/05/30 12:06:54;;;;;;;3.20;1.40;;;;;;;;;;4976629;28;20686;-49
2022/05/30 12:09:45;;;;;;;2.73;1.30;;;;;;;;;;4974720;28;20322;-49
2022/05/30 12:12:22;;;;;;;3.23;1.37;;;;;;;;;;4966661;28;20202;-49
2022/05/30 12:15:14;;;;;;;2.07;1.20;;;;;;;;;;4976639;28;20203;-51
2022/05/30 12:23:48;;;;;;;2.87;1.20;;;;;;;;;;4976373;28;20214;-48
2022/05/30 12:26:14;;;;;;;2.43;1.13;;;;;;;;;;4976037;28;20331;-49
2022/05/30 12:28:55;;;;;;;3.60;1.03;;;;;;;;;;4975908;28;20241;-49
2022/05/30 12:31:37;;;;;;;2.00;0.97;;;;;;;;;;4975988;28;20207;-49
2022/05/30 12:34:06;;;;;;;2.77;1.20;;;;;;;;;;4975970;28;20206;-49
2022/05/30 12:36:40;;;;;;;1.67;1.00;;;;;;;;;;4976126;28;20230;-49
2022/05/30 12:39:31;;;;;;;2.17;1.10;;;;;;;;;;4975767;28;20199;-49
2022/05/30 12:41:58;;;;;;;1.63;1.10;;;;;;;;;;4975715;28;20720;-49
2022/05/30 12:44:45;;;;;;;1.50;1.10;;;;;;;;;;4975878;28;20202;-50
2022/05/30 12:47:14;;;;;;;2.63;1.27;;;;;;;;;;4975659;28;20198;-51
2022/05/30 12:49:41;;;;;;;1.70;1.10;;;;;;;;;;4975395;28;20231;-50
2022/05/30 12:52:14;;;;;;;3.03;0.93;;;;;;;;;;4974731;28;20756;-50
2022/05/30 12:54:45;;;;;;;1.07;0.83;;;;;;;;;;4975680;28;20202;-50
2022/05/30 12:57:12;;;;;;;3.87;1.00;;;;;;;;;;4975090;28;20241;-50
2022/05/30 13:00:02;;;;;;;2.87;1.10;;;;;;;;;;4975567;28;20258;-50
2022/05/30 13:02:46;;;;;;;1.20;0.80;;;;;;;;;;4972395;28;20218;-49
2022/05/30 13:05:22;;;;;;;1.93;1.20;;;;;;;;;;4974846;28;20231;-49
2022/05/30 13:07:49;;;;;;;1.50;1.00;;;;;;;;;;4975134;28;20568;-49
2022/05/30 13:10:15;;;;;;;2.20;1.10;;;;;;;;;;4975068;28;20269;-49
2022/05/30 13:12:53;;;;;;;1.23;0.83;;;;;;;;;;4975041;28;20234;-49
2022/05/30 13:15:37;;;;;;;0.70;0.70;;;;;;;;;;4975253;28;20205;-49
2022/05/30 13:18:12;;;;;;;1.60;0.80;;;;;;;;;;4974989;28;20195;-49
2022/05/30 13:20:42;;;;;;;1.40;1.00;;;;;;;;;;4975027;28;20208;-50
2022/05/30 13:23:08;;;;;;;1.23;1.13;;;;;;;;;;4974769;28;20728;-50
2022/05/30 13:25:35;;;;;;;1.27;0.90;;;;;;;;;;4974785;28;20226;-49
2022/05/30 13:28:06;;;;;;;1.27;0.97;;;;;;;;;;4974699;28;20721;-49
2022/05/30 13:30:33;;;;;;;1.77;1.00;;;;;;;;;;4974792;28;20227;-49
2022/05/30 13:32:59;;;;;;;0.60;0.60;;;;;;;;;;4974653;28;20199;-49
2022/05/30 13:35:29;;;;;;;2.23;1.17;;;;;;;;;;4974449;28;20333;-49
2022/05/30 13:37:58;;;;;;;2.47;1.10;;;;;;;;;;4974675;28;20213;-50
2022/05/30 13:40:25;;;;;;;2.80;1.37;;;;;;;;;;4974726;28;20247;-50
2022/05/30 13:42:53;;;;;;;2.33;1.10;;;;;;;;;;4974660;28;20198;-49
2022/05/30 13:45:19;;;;;;;3.70;1.70;;;;;;;;;;4974730;28;20209;-50
2022/05/30 13:47:45;;;;;;;2.00;1.20;;;;;;;;;;4974815;28;20205;-48
2022/05/30 13:50:11;;;;;;;3.37;1.20;;;;;;;;;;4974029;28;20253;-49
2022/05/30 13:52:39;;;;;;;3.63;1.30;;;;;;;;;;4974366;28;20741;-49
2022/05/30 13:55:07;;;;;;;3.17;1.80;;;;;;;;;;4974476;28;20209;-50
2022/05/30 13:57:33;;;;;;;3.93;1.50;;;;;;;;;;4974588;28;20285;-49
2022/05/30 14:00:00;;;;;;;2.13;1.30;;;;;;;;;;4974454;28;20199;-49
2022/05/30 14:02:29;;;;;;;2.70;1.50;;;;;;;;;;4974454;28;20206;-49
2022/05/30 14:04:56;;;;;;;3.87;1.70;;;;;;;;;;4974323;28;20568;-50
2022/05/30 14:07:23;;;;;;;1.90;1.30;;;;;;;;;;4974479;28;20289;-49
2022/05/30 14:09:52;;;;;;;2.53;1.80;;;;;;;;;;4974310;28;20281;-49
2022/05/30 14:12:19;;;;;;;1.67;1.27;;;;;;;;;;4974294;28;20218;-49
2022/05/30 14:14:46;;;;;;;3.20;1.10;;;;;;;;;;4974016;28;20195;-49
2022/05/30 14:17:12;;;;;;;1.23;1.03;;;;;;;;;;4973905;28;20253;-48
2022/05/30 14:19:39;;;;;;;1.27;1.00;;;;;;;;;;4974069;28;20277;-51
2022/05/30 14:22:10;;;;;;;2.70;1.20;;;;;;;;;;4972278;28;20229;-50
2022/05/30 14:24:38;;;;;;;1.87;1.27;;;;;;;;;;4971292;28;20265;-51
2022/05/30 14:27:16;;;;;;;2.73;1.23;;;;;;;;;;4973498;28;20218;-52
2022/05/30 14:29:44;;;;;;;3.40;1.50;;;;;;;;;;4973540;28;20313;-51
2022/05/30 14:32:22;;;;;;;1.50;1.40;;;;;;;;;;4973521;28;20207;-50
2022/05/30 14:34:56;;;;;;;1.50;1.10;;;;;;;;;;4973590;28;20234;-51
2022/05/30 14:37:26;;;;;;;2.87;1.13;;;;;;;;;;4973632;28;20224;-51
2022/05/30 14:39:53;;;;;;;3.50;0.93;;;;;;;;;;4973721;28;20203;-51
2022/05/30 14:42:21;;;;;;;1.37;0.97;;;;;;;;;;4973532;28;20197;-51
2022/05/30 14:44:51;;;;;;;2.07;1.13;;;;;;;;;;4973646;28;20213;-50
2022/05/30 14:47:23;;;;;;;1.30;1.20;;;;;;;;;;4973380;28;20202;-50
2022/05/30 14:49:53;;;;;;;1.93;1.10;;;;;;;;;;4973350;28;20348;-51
2022/05/30 14:52:25;;;;;;;2.43;1.20;;;;;;;;;;4973137;28;20209;-51
2022/05/30 14:54:52;;;;;;;3.03;1.20;;;;;;;;;;4973299;28;20201;-50
2022/05/30 14:57:20;;;;;;;2.33;1.00;;;;;;;;;;4973197;28;20205;-51
2022/05/30 14:59:47;;;;;;;2.00;1.23;;;;;;;;;;4973203;28;20609;-50
2022/05/30 15:04:02;;;;;;;5.30;1.20;;;;;;;;;;4973057;28;20297;-50
2022/05/30 15:05:00;;;;;;;2.70;1.20;;;;;;;;;;4973235;28;20201;-51
2022/05/30 15:07:27;;;;;;;2.80;1.10;;;;;;;;;;4972979;28;20300;-51
2022/05/30 15:09:53;;;;;;;3.07;1.10;;;;;;;;;;4973002;28;20231;-51
2022/05/30 15:12:19;;;;;;;3.20;1.10;;;;;;;;;;4973164;28;20256;-50
2022/05/30 15:14:45;;;;;;;2.07;1.10;;;;;;;;;;4972713;28;20236;-51